createdAt,value
2022-08-01T00:02:01.463Z,98535.88
2022-08-01T00:04:28.124Z,98532.94
2022-08-01T00:06:54.727Z,98528.91
2022-08-01T00:09:24.307Z,98538.19
2022-08-01T00:11:59.649Z,98530.72
2022-08-01T00:14:32.490Z,98528.03
2022-08-01T00:17:05.263Z,98536.25
2022-08-01T00:19:34.264Z,98532.13
2022-08-01T00:22:01.341Z,98534.19
2022-08-01T00:24:27.969Z,98534.09
2022-08-01T00:26:54.593Z,98536.91
2022-08-01T00:30:12.696Z,98531.63
2022-08-01T00:32:08.333Z,98542.50
2022-08-01T00:34:35.008Z,98549.41
2022-08-01T00:37:01.550Z,98543.16
2022-08-01T00:39:28.082Z,98538.41
2022-08-01T00:41:59.834Z,98544.56
2022-08-01T00:44:28.144Z,98535.94
2022-08-01T00:46:54.748Z,98532.06
2022-08-01T00:49:21.479Z,98526.38
2022-08-01T00:51:49.145Z,98530.88
2022-08-01T00:54:17.047Z,98523.56
2022-08-01T00:56:44.534Z,98512.25
2022-08-01T00:59:14.959Z,98508.69
2022-08-01T01:01:46.864Z,98501.47
2022-08-01T01:04:17.740Z,98496.94
2022-08-01T01:07:10.590Z,98508.78
2022-08-01T01:09:51.625Z,98502.53
2022-08-01T01:12:29.791Z,98515.81
2022-08-01T01:15:11.129Z,98512.13
2022-08-01T01:17:52.930Z,98514.59
2022-08-01T01:20:23.514Z,98508.91
2022-08-01T01:23:20.872Z,98517.22
2022-08-01T01:26:03.456Z,98521.72
2022-08-01T01:29:08.014Z,98527.25
2022-08-01T01:32:07.442Z,98524.56
2022-08-01T01:34:38.664Z,98522.91
2022-08-01T01:37:10.153Z,98527.44
2022-08-01T01:39:39.492Z,98523.13
2022-08-01T01:42:11.997Z,98527.84
2022-08-01T01:44:40.841Z,98526.97
2022-08-01T01:47:07.912Z,98522.69
2022-08-01T01:49:35.308Z,98522.13
2022-08-01T01:52:03.177Z,98519.66
2022-08-01T01:54:35.547Z,98519.88
2022-08-01T01:57:04.870Z,98522.13
2022-08-01T01:59:33.809Z,98528.03
2022-08-01T02:02:08.777Z,98522.97
2022-08-01T02:04:43.413Z,98527.28
2022-08-01T02:07:13.286Z,98526.91
2022-08-01T02:09:42.787Z,98520.88
2022-08-01T02:12:13.144Z,98522.63
2022-08-01T02:14:42.077Z,98523.34
2022-08-01T02:17:12.424Z,98525.34
2022-08-01T02:19:39.313Z,98528.47
2022-08-01T02:22:10.793Z,98523.09
2022-08-01T02:25:15.148Z,98532.19
2022-08-01T02:27:48.647Z,98529.63
2022-08-01T02:30:16.257Z,98529.84
2022-08-01T02:32:47.188Z,98521.84
2022-08-01T02:36:30.276Z,98522.94
2022-08-01T02:38:32.571Z,98523.16
2022-08-01T02:41:04.751Z,98522.47
2022-08-01T02:43:34.873Z,98525.19
2022-08-01T02:46:03.606Z,98525.91
2022-08-01T02:48:32.465Z,98519.88
2022-08-01T02:51:02.767Z,98520.63
2022-08-01T02:53:39.025Z,98519.25
2022-08-01T02:56:14.283Z,98516.91
2022-08-01T02:58:43.225Z,98515.16
2022-08-01T03:01:11.252Z,98516.22
2022-08-01T03:03:38.707Z,98514.13
2022-08-01T03:06:06.228Z,98525.41
2022-08-01T03:08:34.062Z,98520.44
2022-08-01T03:11:02.592Z,98518.53
2022-08-01T03:13:32.100Z,98521.34
2022-08-01T03:16:01.285Z,98524.41
2022-08-01T03:18:30.639Z,98522.88
2022-08-01T03:20:58.714Z,98523.03
2022-08-01T03:23:37.626Z,98514.03
2022-08-01T03:26:06.302Z,98515.50
2022-08-01T03:28:33.293Z,98525.94
2022-08-01T03:31:01.109Z,98524.31
2022-08-01T03:33:28.020Z,98518.31
2022-08-01T03:35:56.646Z,98519.41
2022-08-01T03:38:27.333Z,98525.28
2022-08-01T03:41:03.275Z,98532.19
2022-08-01T03:43:36.559Z,98531.22
2022-08-01T03:46:08.991Z,98532.47
2022-08-01T03:48:40.415Z,98532.38
2022-08-01T03:51:09.188Z,98527.88
2022-08-01T03:53:37.817Z,98531.91
2022-08-01T03:56:09.547Z,98527.59
2022-08-01T03:58:39.775Z,98532.19
2022-08-01T04:01:07.624Z,98529.00
2022-08-01T04:03:43.014Z,98522.00
2022-08-01T04:06:11.424Z,98525.84
2022-08-01T04:08:39.361Z,98535.66
2022-08-01T04:11:06.012Z,98539.50
2022-08-01T04:13:37.127Z,98537.56
2022-08-01T04:16:04.430Z,98536.19
2022-08-01T04:18:30.995Z,98540.19
2022-08-01T04:20:57.517Z,98544.00
2022-08-01T04:23:28.498Z,98547.13
2022-08-01T04:25:56.300Z,98545.88
2022-08-01T04:28:23.893Z,98550.09
2022-08-01T04:30:53.121Z,98545.47
2022-08-01T04:33:21.414Z,98548.72
2022-08-01T04:36:02.211Z,98540.25
2022-08-01T04:38:32.886Z,98548.31
2022-08-01T04:41:09.296Z,98555.78
2022-08-01T04:43:37.757Z,98560.22
2022-08-01T04:46:05.034Z,98560.88
2022-08-01T04:48:34.539Z,98561.44
2022-08-01T04:51:01.702Z,98562.38
2022-08-01T04:53:28.822Z,98566.50
2022-08-01T04:55:56.517Z,98564.59
2022-08-01T04:58:23.148Z,98565.25
2022-08-01T05:00:49.697Z,98568.16
2022-08-01T05:03:16.306Z,98558.81
2022-08-01T05:05:42.916Z,98570.13
2022-08-01T05:08:09.481Z,98567.88
2022-08-01T05:10:36.061Z,98570.94
2022-08-01T05:13:02.819Z,98565.56
2022-08-01T05:15:29.346Z,98564.34
2022-08-01T05:17:56.106Z,98570.81
2022-08-01T05:20:22.725Z,98563.50
2022-08-01T05:22:49.493Z,98571.59
2022-08-01T05:25:19.286Z,98567.16
2022-08-01T05:27:47.983Z,98563.94
2022-08-01T05:30:17.488Z,98561.69
2022-08-01T05:32:44.002Z,98562.91
2022-08-01T05:35:10.673Z,98563.25
2022-08-01T05:37:37.233Z,98563.50
2022-08-01T05:40:04.641Z,98573.31
2022-08-01T05:42:31.305Z,98569.03
2022-08-01T05:44:57.912Z,98566.09
2022-08-01T05:47:24.716Z,98570.28
2022-08-01T05:49:51.308Z,98579.03
2022-08-01T05:52:17.891Z,98572.81
2022-08-01T05:54:44.448Z,98576.53
2022-08-01T05:57:11.223Z,98587.94
2022-08-01T05:59:40.116Z,98581.28
2022-08-01T06:02:07.465Z,98577.84
2022-08-01T06:04:34.180Z,98573.69
2022-08-01T06:07:00.790Z,98570.75
2022-08-01T06:09:27.385Z,98575.44
2022-08-01T06:11:53.947Z,98576.91
2022-08-01T06:14:20.509Z,98571.09
2022-08-01T06:16:47.053Z,98570.13
2022-08-01T06:19:13.634Z,98566.22
2022-08-01T06:21:40.194Z,98578.56
2022-08-01T06:24:06.976Z,98577.06
2022-08-01T06:26:33.680Z,98579.16
2022-08-01T06:29:00.233Z,98578.97
2022-08-01T06:31:30.470Z,98578.41
2022-08-01T06:33:58.485Z,98579.00
2022-08-01T06:36:26.487Z,98589.94
2022-08-01T06:38:53.022Z,98587.97
2022-08-01T06:41:19.775Z,98593.63
2022-08-01T06:43:46.306Z,98583.44
2022-08-01T06:46:12.840Z,98585.28
2022-08-01T06:48:40.338Z,98583.78
2022-08-01T06:51:10.105Z,98575.84
2022-08-01T06:53:38.439Z,98576.31
2022-08-01T06:56:06.335Z,98579.50
2022-08-01T06:58:33.417Z,98569.16
2022-08-01T07:00:59.954Z,98570.84
2022-08-01T07:03:27.726Z,98563.97
2022-08-01T07:06:11.677Z,98560.53
2022-08-01T07:08:38.970Z,98560.53
2022-08-01T07:11:06.086Z,98562.31
2022-08-01T07:13:36.647Z,98562.50
2022-08-01T07:16:11.093Z,98557.50
2022-08-01T07:18:37.705Z,98565.44
2022-08-01T07:21:04.849Z,98559.00
2022-08-01T07:23:34.061Z,98557.03
2022-08-01T07:26:04.895Z,98567.97
2022-08-01T07:28:31.993Z,98570.97
2022-08-01T07:30:58.725Z,98555.78
2022-08-01T07:33:25.319Z,98561.47
2022-08-01T07:35:51.883Z,98558.91
2022-08-01T07:38:18.553Z,98560.78
2022-08-01T07:40:45.371Z,98553.06
2022-08-01T07:43:11.966Z,98563.66
2022-08-01T07:45:38.520Z,98548.13
2022-08-01T07:48:10.494Z,98558.06
2022-08-01T07:50:37.121Z,98565.41
2022-08-01T07:53:04.648Z,98580.16
2022-08-01T07:55:31.494Z,98574.22
2022-08-01T07:57:58.285Z,98571.50
2022-08-01T08:00:25.138Z,98583.66
2022-08-01T08:02:51.753Z,98583.66
2022-08-01T08:05:58.949Z,98581.97
2022-08-01T08:08:09.708Z,98580.59
2022-08-01T08:10:36.305Z,98586.78
2022-08-01T08:13:03.596Z,98589.47
2022-08-01T08:15:30.468Z,98588.31
2022-08-01T08:17:57.129Z,98600.88
2022-08-01T08:20:25.841Z,98595.75
2022-08-01T08:22:52.674Z,98606.97
2022-08-01T08:25:22.889Z,98602.19
2022-08-01T08:27:53.912Z,98600.44
2022-08-01T08:30:21.717Z,98599.41
2022-08-01T08:32:48.861Z,98611.66
2022-08-01T08:35:20.115Z,98610.56
2022-08-01T08:37:50.065Z,98606.41
2022-08-01T08:40:17.098Z,98604.94
2022-08-01T08:42:43.887Z,98604.97
2022-08-01T08:45:12.082Z,98607.66
2022-08-01T08:47:40.106Z,98603.97
2022-08-01T08:50:07.150Z,98598.91
2022-08-01T08:52:38.791Z,98601.50
2022-08-01T08:55:06.366Z,98597.38
2022-08-01T08:57:33.399Z,98597.00
2022-08-01T09:00:00.228Z,98605.09
2022-08-01T09:02:26.762Z,98596.91
2022-08-01T09:04:53.484Z,98603.22
2022-08-01T09:07:20.086Z,98602.47
2022-08-01T09:09:49.209Z,98596.56
2022-08-01T09:12:20.388Z,98594.00
2022-08-01T09:14:47.966Z,98600.44
2022-08-01T09:17:14.722Z,98594.75
2022-08-01T09:19:42.445Z,98597.69
2022-08-01T09:22:15.036Z,98589.63
2022-08-01T09:24:42.950Z,98593.47
2022-08-01T09:27:21.738Z,98587.19
2022-08-01T09:29:49.955Z,98574.78
2022-08-01T09:32:34.831Z,98582.28
2022-08-01T09:35:24.105Z,98587.63
2022-08-01T09:38:17.288Z,98593.88
2022-08-01T09:40:51.059Z,98598.53
2022-08-01T09:43:19.371Z,98597.06
2022-08-01T09:45:49.126Z,98595.84
2022-08-01T09:48:18.319Z,98598.97
2022-08-01T09:50:47.279Z,98600.22
2022-08-01T09:53:24.330Z,98597.31
2022-08-01T09:56:10.186Z,98595.84
2022-08-01T09:59:01.510Z,98604.22
2022-08-01T10:01:42.038Z,98605.50
2022-08-01T10:04:09.929Z,98596.09
2022-08-01T10:06:37.713Z,98602.41
2022-08-01T10:09:04.678Z,98600.63
2022-08-01T10:11:36.597Z,98593.47
2022-08-01T10:14:04.341Z,98591.81
2022-08-01T10:16:32.943Z,98587.47
2022-08-01T10:19:00.182Z,98582.03
2022-08-01T10:21:57.283Z,98587.72
2022-08-01T10:24:18.895Z,98586.75
2022-08-01T10:26:49.658Z,98580.66
2022-08-01T10:29:24.302Z,98572.91
2022-08-01T10:32:07.681Z,98572.63
2022-08-01T10:34:35.546Z,98571.53
2022-08-01T10:37:03.901Z,98569.13
2022-08-01T10:39:34.060Z,98569.16
2022-08-01T10:42:01.720Z,98568.09
2022-08-01T10:44:32.797Z,98573.06
2022-08-01T10:47:11.019Z,98564.66
2022-08-01T10:49:46.507Z,98564.44
2022-08-01T10:52:19.660Z,98555.91
2022-08-01T10:54:52.414Z,98558.88
2022-08-01T10:57:23.071Z,98556.59
2022-08-01T10:59:59.377Z,98548.59
2022-08-01T11:02:34.479Z,98562.63
2022-08-01T11:05:04.325Z,98550.78
2022-08-01T11:07:54.020Z,98548.16
2022-08-01T11:10:26.881Z,98544.00
2022-08-01T11:12:53.837Z,98551.69
2022-08-01T11:15:29.559Z,98551.53
2022-08-01T11:18:00.579Z,98564.88
2022-08-01T11:20:33.881Z,98562.25
2022-08-01T11:23:07.181Z,98557.03
2022-08-01T11:26:04.538Z,98558.09
2022-08-01T11:28:31.978Z,98564.56
2022-08-01T11:31:07.912Z,98558.66
2022-08-01T11:33:46.199Z,98570.03
2022-08-01T11:36:22.184Z,98560.84
2022-08-01T11:39:00.638Z,98565.63
2022-08-01T11:41:38.441Z,98548.47
2022-08-01T11:44:30.527Z,98553.47
2022-08-01T11:47:00.682Z,98550.44
2022-08-01T11:49:29.042Z,98544.00
2022-08-01T11:52:09.555Z,98547.28
2022-08-01T11:54:40.900Z,98553.16
2022-08-01T11:57:20.311Z,98557.19
2022-08-01T12:00:02.808Z,98552.44
2022-08-01T12:02:38.925Z,98564.19
2022-08-01T12:05:18.924Z,98561.44
2022-08-01T12:07:47.250Z,98559.66
2022-08-01T12:10:19.122Z,98548.97
2022-08-01T12:12:56.670Z,98551.97
2022-08-01T12:15:25.252Z,98559.28
2022-08-01T12:17:59.817Z,98555.59
2022-08-01T12:20:31.541Z,98562.47
2022-08-01T12:23:01.262Z,98563.19
2022-08-01T12:25:28.052Z,98561.41
2022-08-01T12:27:56.897Z,98548.00
2022-08-01T12:30:27.920Z,98547.00
2022-08-01T12:32:55.022Z,98546.81
2022-08-01T12:35:24.267Z,98548.06
2022-08-01T12:38:03.357Z,98545.38
2022-08-01T12:40:45.107Z,98550.06
2022-08-01T12:43:26.816Z,98546.22
2022-08-01T12:45:57.837Z,98553.81
2022-08-01T12:48:26.177Z,98558.19
2022-08-01T12:50:53.851Z,98552.72
2022-08-01T12:53:21.499Z,98557.69
2022-08-01T12:55:59.206Z,98540.53
2022-08-01T12:58:33.306Z,98541.00
2022-08-01T13:01:06.462Z,98535.28
2022-08-01T13:03:33.374Z,98540.53
2022-08-01T13:06:01.118Z,98535.69
2022-08-01T13:08:32.920Z,98533.50
2022-08-01T13:11:09.752Z,98526.91
2022-08-01T13:13:43.454Z,98531.88
2022-08-01T13:16:12.455Z,98542.16
2022-08-01T13:18:50.548Z,98541.81
2022-08-01T13:21:20.677Z,98529.59
2022-08-01T13:24:24.482Z,98530.06
2022-08-01T13:26:52.272Z,98523.53
2022-08-01T13:29:21.655Z,98523.03
2022-08-01T13:31:48.995Z,98527.97
2022-08-01T13:34:16.016Z,98525.13
2022-08-01T13:36:48.746Z,98530.34
2022-08-01T13:39:34.990Z,98525.13
2022-08-01T13:42:01.574Z,98523.50
2022-08-01T13:44:28.647Z,98516.38
2022-08-01T13:46:56.917Z,98526.69
2022-08-01T13:49:24.351Z,98527.88
2022-08-01T13:51:51.623Z,98530.94
2022-08-01T13:54:18.803Z,98519.75
2022-08-01T13:56:45.590Z,98523.91
2022-08-01T13:59:12.542Z,98520.06
2022-08-01T14:01:39.265Z,98518.94
2022-08-01T14:04:06.115Z,98513.34
2022-08-01T14:06:33.551Z,98512.25
2022-08-01T14:09:01.160Z,98511.16
2022-08-01T14:11:37.021Z,98507.16
2022-08-01T14:14:04.521Z,98504.19
2022-08-01T14:16:31.487Z,98505.75
2022-08-01T14:18:58.065Z,98502.88
2022-08-01T14:21:24.663Z,98508.47
2022-08-01T14:23:51.209Z,98521.28
2022-08-01T14:26:17.774Z,98524.31
2022-08-01T14:28:44.343Z,98526.81
2022-08-01T14:31:11.352Z,98524.72
2022-08-01T14:33:37.931Z,98518.25
2022-08-01T14:36:29.582Z,98530.81
2022-08-01T14:38:51.839Z,98524.56
2022-08-01T14:41:18.377Z,98521.66
2022-08-01T14:43:45.449Z,98531.00
2022-08-01T14:46:13.302Z,98530.03
2022-08-01T14:48:39.879Z,98529.44
2022-08-01T14:51:08.041Z,98524.47
2022-08-01T14:53:36.617Z,98537.00
2022-08-01T14:56:04.748Z,98531.00
2022-08-01T14:58:31.458Z,98534.88
2022-08-01T15:00:59.297Z,98548.50
2022-08-01T15:03:26.356Z,98540.03
2022-08-01T15:05:52.922Z,98538.66
2022-08-01T15:08:19.469Z,98524.00
2022-08-01T15:10:46.052Z,98535.22
2022-08-01T15:13:12.576Z,98538.03
2022-08-01T15:15:39.157Z,98538.59
2022-08-01T15:18:05.817Z,98537.56
2022-08-01T15:20:33.791Z,98539.31
2022-08-01T15:23:00.482Z,98541.72
2022-08-01T15:25:27.098Z,98539.97
2022-08-01T15:28:11.966Z,98549.13
2022-08-01T15:30:39.070Z,98545.69
2022-08-01T15:33:06.155Z,98545.97
2022-08-01T15:35:33.053Z,98539.81
2022-08-01T15:37:59.653Z,98538.81
2022-08-01T15:40:27.508Z,98543.75
2022-08-01T15:42:54.177Z,98550.19
2022-08-01T15:48:08.966Z,98538.88
2022-08-01T15:50:38.461Z,98548.19
2022-08-01T15:53:05.704Z,98549.53
2022-08-01T15:55:32.234Z,98543.81
2022-08-01T15:57:58.743Z,98537.94
2022-08-01T16:00:25.369Z,98530.19
2022-08-01T16:02:59.774Z,98542.50
2022-08-01T16:05:26.449Z,98535.63
2022-08-01T16:07:59.767Z,98533.03
2022-08-01T16:10:29.431Z,98524.28
2022-08-01T16:12:55.973Z,98531.03
2022-08-01T16:15:22.628Z,98530.72
2022-08-01T16:18:05.386Z,98527.16
2022-08-01T16:20:32.370Z,98518.56
2022-08-01T16:22:58.902Z,98526.59
2022-08-01T16:25:25.468Z,98526.28
2022-08-01T16:27:52.239Z,98509.84
2022-08-01T16:30:18.868Z,98509.81
2022-08-01T16:32:48.786Z,98504.25
2022-08-01T16:35:20.081Z,98511.53
2022-08-01T16:37:47.049Z,98509.13
2022-08-01T16:40:13.646Z,98509.41
2022-08-01T16:42:40.239Z,98508.41
2022-08-01T16:45:13.774Z,98510.97
2022-08-01T16:47:40.711Z,98506.06
2022-08-01T16:50:09.421Z,98508.72
2022-08-01T16:52:42.092Z,98515.44
2022-08-01T16:55:10.332Z,98515.03
2022-08-01T16:57:38.517Z,98514.84
2022-08-01T17:00:21.246Z,98527.75
2022-08-01T17:02:49.367Z,98523.44
2022-08-01T17:05:15.946Z,98521.00
2022-08-01T17:07:42.523Z,98524.84
2022-08-01T17:10:09.620Z,98528.41
2022-08-01T17:12:36.239Z,98524.34
2022-08-01T17:15:03.687Z,98517.53
2022-08-01T17:17:30.255Z,98523.56
2022-08-01T17:19:56.833Z,98525.34
2022-08-01T17:22:23.357Z,98521.56
2022-08-01T17:24:51.123Z,98529.41
2022-08-01T17:27:18.417Z,98530.47
2022-08-01T17:29:45.436Z,98527.34
2022-08-01T17:32:13.264Z,98534.31
2022-08-01T17:34:41.437Z,98530.13
2022-08-01T17:37:09.288Z,98528.91
2022-08-01T17:39:39.329Z,98534.31
2022-08-01T17:42:07.984Z,98539.81
2022-08-01T17:44:34.596Z,98548.50
2022-08-01T17:47:01.140Z,98542.03
2022-08-01T17:49:52.393Z,98553.41
2022-08-01T17:52:14.395Z,98556.06
2022-08-01T17:54:41.882Z,98557.22
2022-08-01T17:57:09.020Z,98560.56
2022-08-01T17:59:36.156Z,98554.28
2022-08-01T18:02:02.892Z,98555.41
2022-08-01T18:04:31.499Z,98555.78
2022-08-01T18:07:01.006Z,98556.69
2022-08-01T18:09:32.486Z,98558.03
2022-08-01T18:12:03.011Z,98562.47
2022-08-01T18:14:39.903Z,98560.16
2022-08-01T18:17:08.635Z,98564.72
2022-08-01T18:19:39.033Z,98569.78
2022-08-01T18:22:05.907Z,98568.16
2022-08-01T18:24:52.304Z,98569.53
2022-08-01T18:27:18.912Z,98562.66
2022-08-01T18:29:47.971Z,98565.47
2022-08-01T18:32:15.195Z,98556.25
2022-08-01T18:34:41.939Z,98562.91
2022-08-01T18:37:10.178Z,98556.53
2022-08-01T18:39:39.787Z,98551.47
2022-08-01T18:42:06.493Z,98557.81
2022-08-01T18:44:33.369Z,98557.38
2022-08-01T18:46:59.971Z,98563.78
2022-08-01T18:49:26.590Z,98562.50
2022-08-01T18:51:54.191Z,98564.72
2022-08-01T18:54:21.071Z,98567.66
2022-08-01T18:56:47.624Z,98572.38
2022-08-01T18:59:14.536Z,98571.00
2022-08-01T19:01:41.594Z,98568.53
2022-08-01T19:04:08.749Z,98571.84
2022-08-01T19:06:35.703Z,98568.50
2022-08-01T19:09:03.474Z,98579.06
2022-08-01T19:11:31.244Z,98586.31
2022-08-01T19:13:58.321Z,98593.94
2022-08-01T19:16:27.813Z,98595.28
2022-08-01T19:18:54.602Z,98596.22
2022-08-01T19:21:22.547Z,98604.28
2022-08-01T19:24:07.624Z,98609.94
2022-08-01T19:26:34.910Z,98607.09
2022-08-01T19:29:08.629Z,98613.84
2022-08-01T19:31:39.762Z,98613.22
2022-08-01T19:34:07.457Z,98613.56
2022-08-01T19:36:34.625Z,98623.63
2022-08-01T19:39:01.428Z,98620.50
2022-08-01T19:41:29.842Z,98626.16
2022-08-01T19:43:58.821Z,98623.91
2022-08-01T19:46:25.839Z,98624.16
2022-08-01T19:48:54.046Z,98629.16
2022-08-01T19:51:33.200Z,98631.47
2022-08-01T19:54:05.146Z,98633.69
2022-08-01T19:56:39.640Z,98631.56
2022-08-01T19:59:10.021Z,98636.69
2022-08-01T20:01:37.498Z,98638.97
2022-08-01T20:04:04.743Z,98636.91
2022-08-01T20:06:31.417Z,98642.78
2022-08-01T20:08:58.587Z,98637.69
2022-08-01T20:11:26.353Z,98642.78
2022-08-01T20:13:54.601Z,98652.41
2022-08-01T20:16:21.414Z,98649.13
2022-08-01T20:18:48.055Z,98651.28
2022-08-01T20:21:15.528Z,98649.03
2022-08-01T20:23:44.399Z,98656.13
2022-08-01T20:26:13.906Z,98654.44
2022-08-01T20:28:43.799Z,98652.69
2022-08-01T20:31:10.512Z,98660.34
2022-08-01T20:33:46.200Z,98660.56
2022-08-01T20:36:24.813Z,98654.00
2022-08-01T20:38:56.701Z,98656.78
2022-08-01T20:41:26.545Z,98651.63
2022-08-01T20:43:55.158Z,98652.59
2022-08-01T20:46:26.881Z,98652.28
2022-08-01T20:48:55.547Z,98652.28
2022-08-01T20:51:26.727Z,98649.78
2022-08-01T20:53:55.496Z,98651.38
2022-08-01T20:56:27.858Z,98647.84
2022-08-01T20:59:03.360Z,98643.50
2022-08-01T21:01:33.630Z,98648.16
2022-08-01T21:04:35.391Z,98651.59
2022-08-01T21:07:27.775Z,98656.28
2022-08-01T21:10:18.816Z,98655.19
2022-08-01T21:12:52.221Z,98652.03
2022-08-01T21:15:27.671Z,98656.66
2022-08-01T21:18:16.224Z,98661.31
2022-08-01T21:20:46.241Z,98659.13
2022-08-01T21:23:33.875Z,98666.13
2022-08-01T21:26:00.932Z,98666.44
2022-08-01T21:28:28.236Z,98665.91
2022-08-01T21:30:59.627Z,98661.00
2022-08-01T21:33:27.868Z,98660.44
2022-08-01T21:35:56.339Z,98663.34
2022-08-01T21:38:24.918Z,98661.72
2022-08-01T21:40:53.274Z,98651.44
2022-08-01T21:43:21.342Z,98651.75
2022-08-01T21:45:58.311Z,98656.53
2022-08-01T21:48:26.931Z,98660.94
2022-08-01T21:51:38.096Z,98658.56
2022-08-01T21:54:13.895Z,98656.06
2022-08-01T21:56:58.258Z,98666.09
2022-08-01T21:59:44.336Z,98662.72
2022-08-01T22:02:36.463Z,98661.28
2022-08-01T22:05:07.048Z,98655.53
2022-08-01T22:07:48.403Z,98660.16
2022-08-01T22:10:20.249Z,98668.81
2022-08-01T22:12:47.554Z,98668.91
2022-08-01T22:15:14.611Z,98674.88
2022-08-01T22:17:41.809Z,98671.59
2022-08-01T22:20:08.927Z,98671.00
2022-08-01T22:22:51.567Z,98668.53
2022-08-01T22:25:19.853Z,98671.56
2022-08-01T22:28:08.012Z,98665.44
2022-08-01T22:30:35.018Z,98660.13
2022-08-01T22:33:07.330Z,98672.63
2022-08-01T22:35:43.853Z,98673.19
2022-08-01T22:38:10.458Z,98672.97
2022-08-01T22:40:44.970Z,98665.97
2022-08-01T22:43:25.002Z,98677.88
2022-08-01T22:45:56.211Z,98677.84
2022-08-01T22:48:36.212Z,98671.91
2022-08-01T22:51:06.239Z,98681.28
2022-08-01T22:53:42.879Z,98677.06
2022-08-01T22:56:12.977Z,98683.28
2022-08-01T22:58:41.265Z,98682.25
2022-08-01T23:01:12.961Z,98692.31
2022-08-01T23:03:55.071Z,98686.94
2022-08-01T23:06:41.258Z,98689.91
2022-08-01T23:09:09.599Z,98695.09
2022-08-01T23:11:37.028Z,98686.75
2022-08-01T23:14:04.057Z,98689.53
2022-08-01T23:16:31.401Z,98691.25
2022-08-01T23:18:59.172Z,98692.13
2022-08-01T23:21:28.014Z,98697.41
2022-08-01T23:23:56.663Z,98703.47
2022-08-01T23:26:23.901Z,98699.75
2022-08-01T23:28:51.471Z,98699.81
2022-08-01T23:31:20.094Z,98696.94
2022-08-01T23:33:46.636Z,98695.03
2022-08-01T23:36:17.215Z,98691.41
2022-08-01T23:38:46.980Z,98699.81
2022-08-01T23:41:16.319Z,98698.63
2022-08-01T23:43:52.096Z,98695.47
2022-08-01T23:46:19.113Z,98697.44
2022-08-01T23:48:45.728Z,98692.69
2022-08-01T23:51:23.905Z,98691.13
2022-08-01T23:53:51.679Z,98690.34
2022-08-01T23:56:21.913Z,98690.69
2022-08-01T23:58:52.369Z,98693.31
